Terminal Aerodrome Forecast
Issued by NWS

Home | Current Version | Previous Version | Text Only | Print | Product List | Glossary On
Versions: 1 2 3 4 5 6 7 8 9 10 11 12 13 14
000
FTUS41 KPBZ 310700 AAA
TAFBVI
TAF AMD
KBVI 310705Z 3107/0106 18005KT P6SM OVC150
     FM310800 21005KT 5SM -SHRA OVC025
     FM311200 22008KT 3SM SHRA OVC009
     FM311600 22008KT 3SM -SHRA OVC015
     FM312000 21008KT 5SM -SHRA VCTS OVC020CB
     FM312300 20005KT 6SM -SHRA BR OVC020
      AMD NOT SKED=

USA.gov is the U.S. government's official web portal to all federal, state and local government web resources and services.